Share

Arhangel'Sk, Russia

2:49 AM MSK on April 25, 2014 (GMT +0400)
Talagi (ULAA) Elev 59 ft | 64.60 °N, 40.72 °E | Change Station

Current weather conditions updated 19 minutes ago

Light Snow Showers
Light Showers Snow
32 °F
Feels Like 26 °F
N
7
Wind Variable Wind from NNE
Sunrise 5:08 AM
Sunset 9:24 PM
Moon Waning Crescent

Today is forecast to be nearly the same temperature as yesterday.

Pressure 29.89 in
Visibility 6.2 miles
Clouds Overcast 600 ft
Windchill 26 °F
Dew Point 30 °F
Humidity 93%
Rainfall 0.00 in
Snow Depth Not available.
UV 0 out of 16
Pollen Not available.
Air Quality Not available.
Flu Activity Not available.
METAR ULAA 242230Z 02003MPS 350V050 9999 -SHSN OVC006CB M00/M01 Q1012 TEMPO 0500 +SHSN BKN003CB RMK QBB190 QFE757/1010 SC060

More Conditions Fewer Conditions

Pressure 29.89 in
Visibility 6.2 miles
Clouds Overcast 600 ft
Windchill 26 °F
Dew Point 30 °F
Humidity 93%
Rainfall 0.00 in
Snow Depth Not available.
UV 0 out of 16
Pollen Not available.
Air Quality Not available.
Flu Activity Not available.
METAR ULAA 242230Z 02003MPS 350V050 9999 -SHSN OVC006CB M00/M01 Q1012 TEMPO 0500 +SHSN BKN003CB RMK QBB190 QFE757/1010 SC060

More Conditions Fewer Conditions

10-Day Weather Forecast

Almanac

Astronomy

Apr. 25, 2014 Rise Set
Actual Time 5:08 AM MSK 9:24 PM MSK
Civil Twilight 4:04 AM MSK 10:29 PM MSK
Nautical Twilight 1:53 AM MSK 1:05 AM MSK
Astronomical Twilight Sun does not rise Sun does not rise
Moon 4:21 AM MSK (4/25) 3:53 PM MSK (4/25)
Length of Visible Light 18h 25m
Length of Day
16h 15m
Tomorrow will be 6m 52s longer.
Waning Crescent, 22% of the Moon is Illuminated
Apr 24
Waning Crescent
Apr 29
New
May 6
First Quarter
May 14
Full
May 21
Last Quarter

Yesterday's Extremes

Country Highs Country Lows

Community

  • Jone Runs Falls
    Jone Runs Falls
  • Easter in Shenandoah National Park
    Easter in Shenandoah National Park
  • Sunset at Apalachicola Bay, Florida
    Sunset at Apalachicola Bay, Florida
  • Clouds mov'n in
    Clouds mov'n in
  • Stacked
    Stacked

WunderPhotos

Upload Photos

1,704,732 photos uploaded!

Nearby

Snow Depth

Not available.

Coastal Water Temperatures

Place Temperature
No Stations Reporting

Earthquake Activity

City Distance Mag. Time & Date
No recent earthquake activity has been reported nearby.
Minimum magnitude displayed is 2.5.

Nearby Weather Stations

There are no personal weather stations in this area.

What do you think?

We're not finished. Please let us know what you like, what you don't like, and what you are still missing.